South Arkansas Regional At Goodwin Field
KELD : now visible

Airfield :











YOU CAN JOIN US ON...

 
LOGIN :

Register | Disclaimer

   EN    FR    IT 

 









Legend :    VFR   Marginal VFR   IFR   Intensive IFR   Very Intensive IFR
Visi :
Ceiling :
>= 8 km
>= 3000ft
5 to 8 km
1000 to 3000 ft
1500m to 5 km
500 to 1000 ft
800 to 1500m
200 to 500 ft
< 800m
< 200 ft
Symbols :   Thunderstorms  Fog  Heavy snow  Heavy precipitations  Wind > 20 kt






- Airport Elevation : 277 ft
- IATA code : ELD


KELD - South Arkansas Regional At Goodwin Field

CURRENT METAR :
  • 081953Z AUTO 00000KT 10SM SCT045 34/23 A3011 RMK AO2 SLP191 T03390233

EXPIRED METARs :
  • 081853Z AUTO 18003KT 10SM CLR 33/23 A3013 RMK AO2 SLP198 T03280233
  • 081753Z AUTO VRB04KT 10SM FEW040 33/24 A3014 RMK AO2 SLP204 T03280239 10328 20206 50003

TAF KELD
Valid from the 08 at 18:00 until the 09 at 18:00 UTC


081731Z 0818/0918 16004KT P6SM SCT040
FM082100 17004KT P6SM SCT050
FM090900 00000KT 5SM BR SKC
FM091200 24006KT P6SM SKC
KZFW FIR / North America



MET'MAP, your aeronautical weather chart ! - Copyright ORBIFLY December 2007 - Disclaimer

ORBIFLY MET'MAP TEAM :

Programming & Development : Alexandra Zaïnal
Concept & original design : Baudouin d'Aumeries
Assistance for programming : Marc-Olivier Méhu
Technical & hardware support : Manuel Goepfert

Contact : metmap@orbifly.com




SOURCES & CREDITS :

   NOAA       Earth
Advisory